This is the latest recevied weather packets stored in our database for station/object ON7LDS-13. If no packets are shown the sender has not sent any weather packets the latest 10 day(s).
| Time | Temp. | Humidity | Pressure | Rain* | Wind** | Luminosity | Snow |
|---|---|---|---|---|---|---|---|
| 1778141161 | 12.78° C | 38% | 1020.1 hPa | - | - | - | - |
| 1778137539 | 11.11° C | 11% | 1019.9 hPa | - | - | - | - |
| 1778133938 | 9.44° C | 1% | 1019.4 hPa | - | - | - | - |
| 1778132739 | 8.89° C | 1% | 1019.2 hPa | - | - | - | - |
| 1778132158 | 8.89° C | 1% | 1019.2 hPa | - | - | - | - |
| 1778130397 | 8.89° C | 1% | 1018.9 hPa | - | - | - | - |
| 1778129788 | 8.33° C | 1% | 1018.8 hPa | - | - | - | - |
| 1778129137 | 8.33° C | 1% | 1018.7 hPa | - | - | - | - |
| 1778122538 | 8.89° C | 1% | 1018.1 hPa | - | - | - | - |
| 1778121366 | 8.89° C | 1% | 1018.1 hPa | - | - | - | - |
| 1778115356 | 9.44° C | 1% | 1017.7 hPa | - | - | - | - |
| 1778114797 | 9.44° C | 1% | 1017.6 hPa | - | - | - | - |
| 1778112385 | 9.44° C | 5% | 1017.5 hPa | - | - | - | - |
| 1778108198 | 10° C | 12% | 1017.1 hPa | - | - | - | - |
| 1778107535 | 10° C | 14% | 1017.1 hPa | - | - | - | - |
| 1778102134 | 10.56° C | 18% | 1016.6 hPa | - | - | - | - |
| 1778101606 | 10.56° C | 16% | 1016.6 hPa | - | - | - | - |
| 1778096133 | 11.11° C | 24% | 1016 hPa | - | - | - | - |
| 1778094935 | 11.11° C | 26% | 1015.8 hPa | - | - | - | - |
| 1778094334 | 11.67° C | 31% | 1015.7 hPa | - | - | - | - |
| 1778093733 | 11.67° C | 34% | 1015.6 hPa | - | - | - | - |
| 1778091993 | 12.22° C | 42% | 1015.3 hPa | - | - | - | - |
| 1778086533 | 13.89° C | 56% | 1014.3 hPa | - | - | - | - |
| 1778083593 | 15° C | 57% | 1013.8 hPa | - | - | - | - |
| 1778079931 | 15.56° C | 56% | 1013.6 hPa | - | - | - | - |
* Rain since midnight (hover to see other rain measurements)
** Current wind speed in m/s (hover to see current wind gust speed)